createdAt,value
2018-12-08T00:00:28.958Z,88.60
2018-12-08T00:02:55.956Z,88.70
2018-12-08T00:05:22.859Z,88.90
2018-12-08T00:07:49.707Z,88.70
2018-12-08T00:10:16.549Z,88.80
2018-12-08T00:12:43.299Z,88.70
2018-12-08T00:15:10.142Z,88.80
2018-12-08T00:17:36.896Z,88.80
2018-12-08T00:20:03.576Z,89.50
2018-12-08T00:22:30.325Z,88.80
2018-12-08T00:24:57.108Z,88.80
2018-12-08T00:27:23.869Z,88.80
2018-12-08T00:29:51.258Z,88.70
2018-12-08T00:32:17.994Z,88.70
2018-12-08T00:34:44.743Z,88.80
2018-12-08T00:37:11.431Z,88.60
2018-12-08T00:39:38.154Z,88.80
2018-12-08T00:42:05.028Z,88.80
2018-12-08T00:44:31.770Z,88.80
2018-12-08T00:46:58.570Z,88.70
2018-12-08T00:49:25.595Z,88.70
2018-12-08T00:51:52.321Z,88.70
2018-12-08T00:54:19.065Z,88.70
2018-12-08T00:56:45.757Z,88.70
2018-12-08T00:59:12.667Z,88.70
2018-12-08T01:01:39.626Z,88.70
2018-12-08T01:04:06.391Z,88.70
2018-12-08T01:06:33.353Z,88.70
2018-12-08T01:09:00.433Z,88.60
2018-12-08T01:11:27.218Z,88.70
2018-12-08T01:13:53.981Z,88.70
2018-12-08T01:16:20.731Z,88.70
2018-12-08T01:18:47.421Z,88.80
2018-12-08T01:21:14.227Z,88.80
2018-12-08T01:23:41.061Z,88.70
2018-12-08T01:26:07.755Z,88.70
2018-12-08T01:28:34.660Z,88.70
2018-12-08T01:31:01.393Z,88.70
2018-12-08T01:33:28.204Z,88.70
2018-12-08T01:35:54.913Z,88.70
2018-12-08T01:38:21.721Z,88.70
2018-12-08T01:40:48.525Z,88.70
2018-12-08T01:43:15.244Z,88.70
2018-12-08T01:45:42.134Z,88.70
2018-12-08T01:48:08.866Z,88.60
2018-12-08T01:50:35.864Z,88.70
2018-12-08T01:53:02.837Z,89.50
2018-12-08T01:55:29.826Z,88.70
2018-12-08T01:57:56.591Z,88.60
2018-12-08T02:00:24.283Z,88.70
2018-12-08T02:02:50.924Z,88.70
2018-12-08T02:05:17.652Z,88.70
2018-12-08T02:07:44.473Z,88.70
2018-12-08T02:10:12.011Z,88.60
2018-12-08T02:12:38.656Z,88.60
2018-12-08T02:15:05.337Z,88.70
2018-12-08T02:17:32.279Z,88.80
2018-12-08T02:19:59.333Z,88.70
2018-12-08T02:22:26.178Z,88.70
2018-12-08T02:24:53.747Z,88.70
2018-12-08T02:27:20.478Z,88.70
2018-12-08T02:29:47.433Z,88.60
2018-12-08T02:32:14.310Z,88.50
2018-12-08T02:34:41.168Z,88.60
2018-12-08T02:37:08.022Z,88.70
2018-12-08T02:39:34.844Z,88.50
2018-12-08T02:42:01.608Z,88.60
2018-12-08T02:44:28.953Z,88.60
2018-12-08T02:46:56.670Z,88.60
2018-12-08T02:49:23.455Z,88.60
2018-12-08T02:51:52.331Z,88.60
2018-12-08T02:54:19.147Z,88.60
2018-12-08T02:56:46.039Z,88.60
2018-12-08T02:59:13.164Z,88.60
2018-12-08T03:01:39.917Z,88.50
2018-12-08T03:04:07.182Z,88.60
2018-12-08T03:06:33.998Z,88.60
2018-12-08T03:09:00.726Z,88.50
2018-12-08T03:11:27.880Z,88.60
2018-12-08T03:13:54.776Z,88.60
2018-12-08T03:16:21.509Z,88.60
2018-12-08T03:18:48.251Z,88.60
2018-12-08T03:21:15.344Z,88.60
2018-12-08T03:23:42.093Z,88.60
2018-12-08T03:26:09.079Z,88.60
2018-12-08T03:28:35.949Z,88.60
2018-12-08T03:31:02.960Z,88.60
2018-12-08T03:33:29.749Z,88.60
2018-12-08T03:35:56.463Z,88.60
2018-12-08T03:38:23.250Z,88.50
2018-12-08T03:40:51.110Z,88.60
2018-12-08T03:43:18.323Z,88.60
2018-12-08T03:45:45.160Z,88.50
2018-12-08T03:48:11.947Z,88.50
2018-12-08T03:50:38.713Z,88.50
2018-12-08T03:53:05.754Z,88.50
2018-12-08T03:55:32.420Z,88.30
2018-12-08T03:57:59.275Z,88.50
2018-12-08T04:00:26.193Z,88.60
2018-12-08T04:02:58.126Z,88.50
2018-12-08T04:05:24.861Z,88.50
2018-12-08T04:07:51.913Z,88.50
2018-12-08T04:10:18.812Z,88.50
2018-12-08T04:12:45.567Z,88.50
2018-12-08T04:15:12.377Z,88.50
2018-12-08T04:17:39.207Z,88.50
2018-12-08T04:20:05.974Z,88.60
2018-12-08T04:22:33.039Z,88.50
2018-12-08T04:24:59.749Z,88.50
2018-12-08T04:27:26.476Z,88.50
2018-12-08T04:29:53.352Z,88.40
2018-12-08T04:32:20.072Z,88.40
2018-12-08T04:34:46.823Z,88.50
2018-12-08T04:37:13.521Z,88.50
2018-12-08T04:39:40.264Z,88.50
2018-12-08T04:42:07.043Z,88.30
2018-12-08T04:44:33.807Z,88.40
2018-12-08T04:47:00.607Z,88.50
2018-12-08T04:49:27.344Z,88.40
2018-12-08T04:51:54.176Z,88.40
2018-12-08T04:54:21.064Z,88.40
2018-12-08T04:56:47.767Z,88.50
2018-12-08T04:59:14.629Z,88.50
2018-12-08T05:01:41.519Z,88.50
2018-12-08T05:04:08.299Z,88.40
2018-12-08T05:06:35.228Z,88.40
2018-12-08T05:09:01.956Z,88.40
2018-12-08T05:11:28.692Z,88.60
2018-12-08T05:13:55.349Z,88.50
2018-12-08T05:16:22.236Z,88.50
2018-12-08T05:18:49.619Z,88.50
2018-12-08T05:21:16.370Z,88.30
2018-12-08T05:23:43.201Z,88.60
2018-12-08T05:26:10.108Z,88.50
2018-12-08T05:28:37.007Z,88.50
2018-12-08T05:31:04.077Z,88.50
2018-12-08T05:33:30.899Z,88.50
2018-12-08T05:35:58.448Z,88.50
2018-12-08T05:38:25.183Z,88.50
2018-12-08T05:40:52.147Z,88.30
2018-12-08T05:43:18.986Z,88.50
2018-12-08T05:45:45.795Z,88.50
2018-12-08T05:48:12.689Z,88.50
2018-12-08T05:50:39.447Z,88.50
2018-12-08T05:53:06.171Z,88.50
2018-12-08T05:55:33.089Z,88.40
2018-12-08T05:57:59.853Z,89.00
2018-12-08T06:00:26.884Z,88.50
2018-12-08T06:02:54.023Z,88.40
2018-12-08T06:05:20.850Z,88.40
2018-12-08T06:07:47.775Z,88.40
2018-12-08T06:10:14.642Z,88.40
2018-12-08T06:12:41.412Z,88.40
2018-12-08T06:15:08.118Z,88.40
2018-12-08T06:17:34.811Z,88.40
2018-12-08T06:20:01.524Z,88.50
2018-12-08T06:22:28.340Z,88.50
2018-12-08T06:24:55.195Z,88.40
2018-12-08T06:27:21.955Z,88.40
2018-12-08T06:29:48.642Z,88.50
2018-12-08T06:32:15.940Z,88.40
2018-12-08T06:34:42.812Z,88.40
2018-12-08T06:37:10.840Z,88.40
2018-12-08T06:39:38.002Z,88.50
2018-12-08T06:42:05.007Z,88.50
2018-12-08T06:44:31.658Z,88.40
2018-12-08T06:46:58.536Z,88.40
2018-12-08T06:49:25.388Z,88.40
2018-12-08T06:51:52.788Z,88.40
2018-12-08T06:54:19.600Z,88.40
2018-12-08T06:56:46.419Z,88.40
2018-12-08T06:59:13.192Z,88.40
2018-12-08T07:01:40.259Z,88.40
2018-12-08T07:04:07.352Z,88.40
2018-12-08T07:06:34.213Z,88.40
2018-12-08T07:09:01.907Z,88.40
2018-12-08T07:11:29.346Z,88.40
2018-12-08T07:13:56.358Z,88.40
2018-12-08T07:16:23.430Z,88.50
2018-12-08T07:18:50.205Z,88.40
2018-12-08T07:21:16.954Z,88.40
2018-12-08T07:23:43.654Z,88.40
2018-12-08T07:26:10.774Z,88.50
2018-12-08T07:28:37.667Z,88.30
2018-12-08T07:31:05.547Z,88.50
2018-12-08T07:33:32.489Z,88.40
2018-12-08T07:35:59.310Z,88.40
2018-12-08T07:38:26.099Z,88.50
2018-12-08T07:40:53.031Z,88.40
2018-12-08T07:43:19.827Z,88.40
2018-12-08T07:45:46.603Z,88.40
2018-12-08T07:48:13.423Z,88.40
2018-12-08T07:50:40.406Z,88.40
2018-12-08T07:53:07.143Z,88.40
2018-12-08T07:55:34.001Z,88.40
2018-12-08T07:58:00.916Z,88.40
2018-12-08T08:00:27.832Z,88.30
2018-12-08T08:02:54.653Z,88.40
2018-12-08T08:05:21.697Z,88.30
2018-12-08T08:07:48.460Z,88.70
2018-12-08T08:10:15.480Z,88.40
2018-12-08T08:12:42.257Z,88.40
2018-12-08T08:15:09.017Z,88.40
2018-12-08T08:17:36.081Z,88.40
2018-12-08T08:20:02.940Z,88.40
2018-12-08T08:22:29.685Z,88.30
2018-12-08T08:24:56.615Z,88.50
2018-12-08T08:27:23.320Z,88.40
2018-12-08T08:29:50.240Z,88.40
2018-12-08T08:32:20.972Z,88.40
2018-12-08T08:35:00.858Z,88.40
2018-12-08T08:40:31.940Z,89.20
2018-12-08T08:42:59.475Z,88.40
2018-12-08T08:45:26.220Z,88.40
2018-12-08T08:47:56.864Z,88.30
2018-12-08T08:50:26.433Z,88.30
2018-12-08T08:52:53.679Z,88.40
2018-12-08T08:55:20.589Z,88.40
2018-12-08T08:57:47.412Z,88.40
2018-12-08T09:02:50.162Z,88.30
2018-12-08T09:05:18.226Z,88.40
2018-12-08T09:07:45.055Z,88.30
2018-12-08T09:10:12.280Z,88.20
2018-12-08T09:12:39.152Z,88.20
2018-12-08T09:15:08.239Z,88.30
2018-12-08T09:17:34.976Z,88.30
2018-12-08T09:20:02.293Z,88.30
2018-12-08T09:22:29.198Z,88.40
2018-12-08T09:24:55.931Z,88.50
2018-12-08T09:27:24.223Z,88.40
2018-12-08T09:29:51.058Z,88.40
2018-12-08T09:32:17.876Z,88.40
2018-12-08T09:34:44.978Z,88.40
2018-12-08T09:37:11.822Z,88.40
2018-12-08T09:39:38.638Z,88.40
2018-12-08T09:42:05.423Z,88.40
2018-12-08T09:44:32.465Z,88.10
2018-12-08T09:46:59.606Z,88.40
2018-12-08T09:49:27.070Z,88.40
2018-12-08T09:51:53.800Z,88.30
2018-12-08T09:54:20.725Z,88.40
2018-12-08T09:56:47.591Z,88.40
2018-12-08T09:59:15.465Z,88.40
2018-12-08T10:01:42.507Z,88.40
2018-12-08T10:04:10.082Z,88.40
2018-12-08T10:06:36.989Z,87.70
2018-12-08T10:09:04.606Z,88.30
2018-12-08T10:11:31.566Z,88.20
2018-12-08T10:14:01.662Z,88.30
2018-12-08T10:16:31.624Z,88.40
2018-12-08T10:19:01.112Z,88.40
2018-12-08T10:21:28.036Z,88.40
2018-12-08T10:23:55.100Z,88.40
2018-12-08T10:26:23.820Z,88.40
2018-12-08T10:28:50.722Z,88.40
2018-12-08T10:31:23.823Z,88.40
2018-12-08T10:33:51.024Z,88.30
2018-12-08T10:36:18.444Z,88.40
2018-12-08T10:41:58.547Z,88.40
2018-12-08T10:47:06.384Z,88.40
2018-12-08T10:49:34.432Z,88.20
2018-12-08T10:52:01.279Z,88.30
2018-12-08T10:54:28.320Z,88.40
2018-12-08T10:56:56.586Z,88.30
2018-12-08T10:59:27.011Z,88.30
2018-12-08T11:02:02.008Z,88.40
2018-12-08T11:04:28.879Z,88.40
2018-12-08T11:06:56.325Z,88.40
2018-12-08T11:09:23.148Z,88.40
2018-12-08T11:11:51.199Z,88.20
2018-12-08T11:14:18.467Z,88.40
2018-12-08T11:16:45.318Z,88.30
2018-12-08T11:19:12.536Z,88.30
2018-12-08T11:21:39.374Z,88.30
2018-12-08T11:24:06.236Z,88.30
2018-12-08T11:26:33.222Z,88.40
2018-12-08T11:29:00.019Z,88.40
2018-12-08T11:31:26.752Z,88.30
2018-12-08T11:33:53.458Z,88.40
2018-12-08T11:36:20.455Z,88.40
2018-12-08T11:38:47.396Z,88.40
2018-12-08T11:41:15.069Z,88.40
2018-12-08T11:43:42.811Z,88.20
2018-12-08T11:46:09.764Z,88.30
2018-12-08T11:48:36.510Z,88.40
2018-12-08T11:51:03.257Z,88.20
2018-12-08T11:53:30.082Z,88.30
2018-12-08T11:55:56.853Z,88.30
2018-12-08T11:58:23.636Z,88.40
2018-12-08T12:00:50.407Z,88.40
2018-12-08T12:03:17.206Z,88.30
2018-12-08T12:05:44.561Z,88.30
2018-12-08T12:08:11.831Z,88.20
2018-12-08T12:10:38.579Z,88.30
2018-12-08T12:13:05.395Z,88.30
2018-12-08T12:15:32.314Z,88.40
2018-12-08T12:18:00.390Z,88.30
2018-12-08T12:20:27.126Z,88.30
2018-12-08T12:22:54.126Z,88.40
2018-12-08T12:25:21.801Z,88.30
2018-12-08T12:27:49.442Z,88.30
2018-12-08T12:33:35.422Z,88.30
2018-12-08T12:36:02.237Z,88.20
2018-12-08T12:38:28.978Z,88.30
2018-12-08T12:40:55.793Z,88.20
2018-12-08T12:43:25.258Z,88.80
2018-12-08T12:46:06.013Z,88.30
2018-12-08T12:48:33.029Z,88.20
2018-12-08T12:50:59.807Z,88.10
2018-12-08T12:53:26.671Z,88.30
2018-12-08T12:55:53.674Z,88.30
2018-12-08T12:58:20.453Z,88.30
2018-12-08T13:00:47.877Z,88.30
2018-12-08T13:03:15.326Z,88.30
2018-12-08T13:05:42.148Z,88.20
2018-12-08T13:08:08.908Z,88.30
2018-12-08T13:10:35.761Z,88.30
2018-12-08T13:13:02.536Z,88.30
2018-12-08T13:15:29.403Z,88.20
2018-12-08T13:17:56.440Z,88.00
2018-12-08T13:20:23.377Z,88.10
2018-12-08T13:22:50.188Z,88.20
2018-12-08T13:25:17.004Z,88.30
2018-12-08T13:27:44.505Z,88.20
2018-12-08T13:30:11.427Z,88.20
2018-12-08T13:32:38.297Z,88.20
2018-12-08T13:35:05.026Z,88.10
2018-12-08T13:37:31.811Z,88.20
2018-12-08T13:39:58.526Z,88.10
2018-12-08T13:42:25.312Z,88.20
2018-12-08T13:44:52.291Z,88.10
2018-12-08T13:47:19.136Z,88.00
2018-12-08T13:49:46.033Z,88.30
2018-12-08T13:52:12.989Z,88.20
2018-12-08T13:54:41.503Z,88.20
2018-12-08T13:57:08.613Z,88.10
2018-12-08T13:59:35.545Z,88.00
2018-12-08T14:02:02.759Z,88.10
2018-12-08T14:04:29.583Z,88.10
2018-12-08T14:06:56.343Z,88.20
2018-12-08T14:09:23.354Z,88.10
2018-12-08T14:11:50.067Z,88.10
2018-12-08T14:14:16.808Z,88.00
2018-12-08T14:16:44.462Z,88.10
2018-12-08T14:19:11.253Z,88.10
2018-12-08T14:21:38.066Z,88.10
2018-12-08T14:24:05.101Z,88.10
2018-12-08T14:26:31.959Z,88.10
2018-12-08T14:28:59.051Z,88.10
2018-12-08T14:31:25.969Z,88.10
2018-12-08T14:33:53.094Z,88.10
2018-12-08T14:36:20.006Z,88.10
2018-12-08T14:38:46.848Z,88.00
2018-12-08T14:41:13.578Z,88.10
2018-12-08T14:43:40.666Z,88.10
2018-12-08T14:46:12.439Z,88.10
2018-12-08T14:48:39.349Z,88.10
2018-12-08T14:51:06.270Z,88.00
2018-12-08T14:53:33.001Z,88.00
2018-12-08T14:55:59.822Z,88.10
2018-12-08T14:58:26.742Z,88.00
2018-12-08T15:00:53.473Z,88.00
2018-12-08T15:03:20.187Z,88.10
2018-12-08T15:05:47.745Z,88.00
2018-12-08T15:08:14.506Z,88.10
2018-12-08T15:10:41.270Z,88.80
2018-12-08T15:13:08.180Z,88.10
2018-12-08T15:15:34.934Z,88.00
2018-12-08T15:18:01.700Z,87.80
2018-12-08T15:20:28.840Z,88.00
2018-12-08T15:22:55.697Z,88.00
2018-12-08T15:25:22.390Z,88.10
2018-12-08T15:27:49.600Z,88.00
2018-12-08T15:30:16.606Z,88.00
2018-12-08T15:32:43.564Z,88.00
2018-12-08T15:35:10.341Z,88.00
2018-12-08T15:37:37.092Z,87.90
2018-12-08T15:40:03.989Z,88.00
2018-12-08T15:42:30.765Z,88.00
2018-12-08T15:44:57.590Z,87.90
2018-12-08T15:47:24.427Z,87.90
2018-12-08T15:49:51.189Z,88.00
2018-12-08T15:52:17.887Z,88.30
2018-12-08T15:54:44.792Z,88.00
2018-12-08T15:57:11.971Z,87.90
2018-12-08T15:59:38.744Z,88.00
2018-12-08T16:02:05.574Z,88.00
2018-12-08T16:04:32.356Z,87.90
2018-12-08T16:06:59.240Z,87.90
2018-12-08T16:09:26.082Z,87.90
2018-12-08T16:11:52.828Z,88.00
2018-12-08T16:14:19.948Z,87.90
2018-12-08T16:16:47.641Z,87.90
2018-12-08T16:19:14.835Z,88.00
2018-12-08T16:21:41.907Z,87.90
2018-12-08T16:24:08.694Z,87.90
2018-12-08T16:26:36.304Z,87.90
2018-12-08T16:29:04.012Z,87.90
2018-12-08T16:31:30.719Z,88.00
2018-12-08T16:33:57.775Z,87.70
2018-12-08T16:36:24.486Z,87.90
2018-12-08T16:38:51.336Z,88.00
2018-12-08T16:41:18.452Z,87.80
2018-12-08T16:43:45.242Z,88.00
2018-12-08T16:46:11.916Z,88.00
2018-12-08T16:48:38.758Z,87.40
2018-12-08T16:51:05.939Z,87.90
2018-12-08T16:53:32.790Z,88.00
2018-12-08T16:55:59.475Z,87.90
2018-12-08T16:58:26.324Z,88.00
2018-12-08T17:00:53.511Z,88.00
2018-12-08T17:03:20.270Z,88.00
2018-12-08T17:05:46.952Z,88.00
2018-12-08T17:08:15.383Z,88.00
2018-12-08T17:10:42.145Z,88.00
2018-12-08T17:13:08.841Z,87.90
2018-12-08T17:15:35.688Z,88.00
2018-12-08T17:18:02.764Z,87.80
2018-12-08T17:20:29.478Z,88.00
2018-12-08T17:22:56.255Z,88.00
2018-12-08T17:25:23.183Z,88.00
2018-12-08T17:27:49.905Z,88.00
2018-12-08T17:30:16.653Z,88.00
2018-12-08T17:32:44.659Z,88.00
2018-12-08T17:35:11.416Z,87.90
2018-12-08T17:37:38.220Z,88.00
2018-12-08T17:40:05.364Z,87.80
2018-12-08T17:42:32.426Z,88.00
2018-12-08T17:45:00.137Z,87.90
2018-12-08T17:47:27.187Z,88.00
2018-12-08T17:49:54.022Z,88.00
2018-12-08T17:52:20.765Z,88.10
2018-12-08T17:54:49.470Z,88.10
2018-12-08T17:57:16.221Z,88.00
2018-12-08T17:59:42.956Z,87.90
2018-12-08T18:02:12.367Z,88.00
2018-12-08T18:04:39.258Z,88.00
2018-12-08T18:07:06.333Z,88.00
2018-12-08T18:12:12.462Z,88.00
2018-12-08T18:14:40.258Z,88.00
2018-12-08T18:17:10.271Z,88.00
2018-12-08T18:22:19.940Z,88.10
2018-12-08T18:24:47.183Z,88.00
2018-12-08T18:27:14.300Z,88.80
2018-12-08T18:29:41.024Z,88.00
2018-12-08T18:32:07.767Z,88.00
2018-12-08T18:34:34.894Z,88.10
2018-12-08T18:37:01.621Z,88.10
2018-12-08T18:39:28.315Z,87.90
2018-12-08T18:41:55.116Z,88.00
2018-12-08T18:44:22.748Z,88.00
2018-12-08T18:47:00.069Z,88.00
2018-12-08T18:49:27.316Z,88.10
2018-12-08T18:51:54.195Z,88.00
2018-12-08T18:54:20.966Z,88.10
2018-12-08T18:56:57.577Z,88.70
2018-12-08T18:59:28.285Z,88.10
2018-12-08T19:01:56.554Z,88.10
2018-12-08T19:04:25.196Z,88.80
2018-12-08T19:06:53.376Z,88.10
2018-12-08T19:09:20.293Z,88.10
2018-12-08T19:11:47.034Z,88.10
2018-12-08T19:14:16.560Z,88.00
2018-12-08T19:16:43.300Z,88.00
2018-12-08T19:19:10.090Z,88.00
2018-12-08T19:21:37.850Z,88.00
2018-12-08T19:24:04.657Z,87.90
2018-12-08T19:26:31.576Z,88.00
2018-12-08T19:28:58.340Z,88.00
2018-12-08T19:31:25.161Z,88.00
2018-12-08T19:33:52.054Z,88.00
2018-12-08T19:36:18.947Z,88.00
2018-12-08T19:38:45.654Z,88.00
2018-12-08T19:41:12.425Z,88.00
2018-12-08T19:43:39.546Z,87.90
2018-12-08T19:46:06.610Z,88.00
2018-12-08T19:48:33.283Z,88.00
2018-12-08T19:51:00.123Z,88.00
2018-12-08T19:53:26.912Z,88.00
2018-12-08T19:55:53.580Z,88.00
2018-12-08T19:58:20.243Z,88.00
2018-12-08T20:00:47.438Z,88.00
2018-12-08T20:03:15.347Z,87.90
2018-12-08T20:05:42.199Z,88.00
2018-12-08T20:11:39.052Z,87.90
2018-12-08T20:16:57.116Z,88.00
2018-12-08T20:19:25.505Z,87.90
2018-12-08T20:21:53.154Z,87.90
2018-12-08T20:24:19.999Z,88.00
2018-12-08T20:26:48.134Z,87.90
2018-12-08T20:29:15.107Z,87.80
2018-12-08T20:31:41.887Z,88.00
2018-12-08T20:34:08.868Z,88.10
2018-12-08T20:36:36.731Z,88.00
2018-12-08T20:39:06.590Z,88.10
2018-12-08T20:41:33.387Z,88.00
2018-12-08T20:44:00.396Z,88.00
2018-12-08T20:46:29.232Z,88.10
2018-12-08T20:48:56.909Z,88.00
2018-12-08T20:51:23.762Z,87.90
2018-12-08T20:53:50.493Z,88.00
2018-12-08T20:56:17.319Z,88.00
2018-12-08T20:58:46.085Z,88.00
2018-12-08T21:01:13.095Z,88.00
2018-12-08T21:03:39.807Z,88.00
2018-12-08T21:06:06.520Z,87.80
2018-12-08T21:08:33.320Z,88.00
2018-12-08T21:11:00.947Z,88.00
2018-12-08T21:13:27.907Z,87.90
2018-12-08T21:15:54.704Z,88.00
2018-12-08T21:18:21.613Z,88.10
2018-12-08T21:20:48.539Z,88.10
2018-12-08T21:23:15.595Z,88.00
2018-12-08T21:25:43.408Z,88.10
2018-12-08T21:28:10.228Z,88.00
2018-12-08T21:30:37.886Z,88.10
2018-12-08T21:33:06.415Z,87.90
2018-12-08T21:35:33.190Z,88.00
2018-12-08T21:38:00.009Z,88.10
2018-12-08T21:40:27.013Z,88.10
2018-12-08T21:42:53.996Z,88.10
2018-12-08T21:45:20.762Z,88.80
2018-12-08T21:47:48.107Z,88.10
2018-12-08T21:50:21.035Z,88.00
2018-12-08T21:53:08.765Z,88.10
2018-12-08T21:55:35.769Z,88.10
2018-12-08T21:58:03.626Z,88.00
2018-12-08T22:00:42.447Z,88.20
2018-12-08T22:03:09.932Z,88.10
2018-12-08T22:05:36.785Z,88.10
2018-12-08T22:08:03.564Z,88.10
2018-12-08T22:10:30.326Z,88.10
2018-12-08T22:12:57.000Z,88.10
2018-12-08T22:15:23.943Z,88.10
2018-12-08T22:17:50.922Z,88.10
2018-12-08T22:20:17.675Z,88.20
2018-12-08T22:22:44.477Z,88.10
2018-12-08T22:25:11.339Z,88.10
2018-12-08T22:27:38.055Z,88.20
2018-12-08T22:30:04.833Z,88.10
2018-12-08T22:32:31.668Z,88.20
2018-12-08T22:34:58.507Z,88.20
2018-12-08T22:37:25.323Z,88.10
2018-12-08T22:39:52.176Z,88.20
2018-12-08T22:42:18.875Z,88.20
2018-12-08T22:44:45.679Z,88.20
2018-12-08T22:47:12.482Z,88.20
2018-12-08T22:49:39.239Z,88.10
2018-12-08T22:52:05.961Z,88.20
2018-12-08T22:54:32.740Z,88.20
2018-12-08T22:56:59.759Z,88.20
2018-12-08T22:59:26.575Z,88.20
2018-12-08T23:01:53.377Z,88.20
2018-12-08T23:04:20.209Z,88.20
2018-12-08T23:06:46.912Z,88.20
2018-12-08T23:09:13.802Z,88.20
2018-12-08T23:11:40.789Z,88.20
2018-12-08T23:14:07.542Z,88.20
2018-12-08T23:16:34.309Z,88.20
2018-12-08T23:19:01.205Z,89.00
2018-12-08T23:21:28.048Z,88.20
2018-12-08T23:23:54.861Z,88.30
2018-12-08T23:26:22.724Z,88.30
2018-12-08T23:28:49.539Z,88.30
2018-12-08T23:31:16.341Z,88.00
2018-12-08T23:33:43.075Z,88.20
2018-12-08T23:36:10.464Z,88.10
2018-12-08T23:38:37.266Z,88.20
2018-12-08T23:41:03.978Z,88.30
2018-12-08T23:43:30.697Z,88.20
2018-12-08T23:45:57.460Z,88.10
2018-12-08T23:48:24.155Z,88.20
2018-12-08T23:50:50.879Z,88.30
2018-12-08T23:53:17.949Z,88.20
2018-12-08T23:55:45.064Z,88.30
2018-12-08T23:58:11.819Z,88.30
